This is the latest recevied weather packets stored in our database for station/object VE2JOS. If no packets are shown the sender has not sent any weather packets the latest 10 day(s).
| Time | Temp. | Humidity | Pressure | Rain* | Wind** | Luminosity | Snow |
|---|---|---|---|---|---|---|---|
| 1777716938 | 4.44° C | 64% | - | 0 mm | - | - | - |
| 1777715778 | 4.44° C | 68% | - | 0 mm | - | - | - |
| 1777715138 | 4.44° C | 69% | - | 0 mm | - | - | - |
| 1777711538 | 4.44° C | 66% | - | 0 mm | - | - | - |
| 1777710338 | 4.44° C | 70% | - | 0 mm | - | - | - |
| 1777704938 | 5° C | 72% | - | 0 mm | - | - | - |
| 1777701338 | 5.56° C | 69% | - | 0 mm | - | - | - |
| 1777700758 | 5.56° C | 69% | - | 0 mm | - | - | - |
| 1777697138 | 6.67° C | 63% | - | 0 mm | - | - | - |
| 1777686938 | 8.33° C | 59% | - | 0 mm | - | - | - |
| 1777683939 | 8.89° C | 57% | - | 0 mm | - | - | - |
| 1777683338 | 8.89° C | 57% | - | 0 mm | - | - | - |
| 1777682738 | 8.89° C | 56% | - | 0 mm | - | - | - |
| 1777679438 | 10° C | 54% | - | 0 mm | - | - | - |
| 1777676438 | 10.56° C | 49% | - | 0 mm | - | - | - |
| 1777674040 | 11.11° C | 48% | - | 0 mm | - | - | - |
| 1777672858 | 11.67° C | 44% | - | 0 mm | - | - | - |
| 1777668038 | 12.22° C | 42% | - | 0 mm | - | - | - |
| 1777667439 | 11.67° C | 42% | - | 0 mm | - | - | - |
| 1777663838 | 12.78° C | 42% | - | 0 mm | - | - | - |
| 1777654237 | 11.11° C | 49% | - | 0 mm | - | - | - |
| 1777651838 | 8.89° C | 54% | - | 0 mm | - | - | - |
| 1777650038 | 8.89° C | 54% | - | 0 mm | - | - | - |
| 1777649437 | 8.89° C | 55% | - | 0 mm | - | - | - |
| 1777644638 | 6.67° C | 63% | - | 0 mm | - | - | - |
* Rain latest hour (hover to see other rain measurements)
** Current wind speed in m/s (hover to see current wind gust speed)